createdAt,value
2023-09-11T00:00:10.017Z,96632.69
2023-09-11T00:02:40.554Z,96628.13
2023-09-11T00:05:10.321Z,96631.88
2023-09-11T00:07:38.942Z,96623.59
2023-09-11T00:10:09.838Z,96618.81
2023-09-11T00:12:38.651Z,96619.59
2023-09-11T00:15:09.317Z,96610.22
2023-09-11T00:17:39.526Z,96610.56
2023-09-11T00:20:11.573Z,96604.66
2023-09-11T00:22:40.280Z,96608.94
2023-09-11T00:25:11.494Z,96601.72
2023-09-11T00:27:39.781Z,96602.53
2023-09-11T00:30:09.543Z,96601.22
2023-09-11T00:32:39.654Z,96598.81
2023-09-11T00:35:08.771Z,96602.03
2023-09-11T00:37:37.573Z,96592.16
2023-09-11T00:40:09.471Z,96591.34
2023-09-11T00:42:37.991Z,96588.13
2023-09-11T00:45:08.482Z,96586.56
2023-09-11T00:47:37.597Z,96587.91
2023-09-11T00:50:12.256Z,96582.59
2023-09-11T00:52:41.581Z,96582.06
2023-09-11T00:55:13.128Z,96584.22
2023-09-11T00:57:42.048Z,96579.13
2023-09-11T01:00:12.491Z,96574.28
2023-09-11T01:02:41.220Z,96572.97
2023-09-11T01:05:11.685Z,96577.28
2023-09-11T01:07:40.069Z,96567.38
2023-09-11T01:10:11.889Z,96563.88
2023-09-11T01:12:41.920Z,96564.69
2023-09-11T01:15:12.088Z,96564.16
2023-09-11T01:17:47.423Z,96557.22
2023-09-11T01:20:52.354Z,96555.88
2023-09-11T01:24:15.226Z,96563.69
2023-09-11T01:27:14.394Z,96551.66
2023-09-11T01:29:45.423Z,96556.22
2023-09-11T01:32:16.309Z,96550.88
2023-09-11T01:34:44.663Z,96537.50
2023-09-11T01:37:13.070Z,96551.41
2023-09-11T01:39:41.851Z,96543.38
2023-09-11T01:42:15.327Z,96541.78
2023-09-11T01:44:49.419Z,96537.75
2023-09-11T01:47:24.211Z,96545.50
2023-09-11T01:49:54.839Z,96533.25
2023-09-11T01:52:24.349Z,96543.13
2023-09-11T01:54:53.309Z,96542.03
2023-09-11T01:57:22.140Z,96545.00
2023-09-11T01:59:51.936Z,96546.31
2023-09-11T02:02:20.417Z,96553.00
2023-09-11T02:04:49.066Z,96555.69
2023-09-11T02:07:17.677Z,96551.13
2023-09-11T02:09:46.583Z,96544.72
2023-09-11T02:12:15.204Z,96552.47
2023-09-11T02:14:44.118Z,96549.28
2023-09-11T02:17:14.307Z,96552.22
2023-09-11T02:19:43.221Z,96553.03
2023-09-11T02:22:11.982Z,96554.63
2023-09-11T02:24:40.655Z,96554.91
2023-09-11T02:27:08.978Z,96546.34
2023-09-11T02:29:37.855Z,96545.53
2023-09-11T02:32:07.335Z,96543.91
2023-09-11T02:34:37.363Z,96541.53
2023-09-11T02:37:06.209Z,96543.16
2023-09-11T02:39:34.827Z,96545.81
2023-09-11T02:42:05.911Z,96545.56
2023-09-11T02:44:34.486Z,96546.91
2023-09-11T02:47:02.930Z,96555.44
2023-09-11T02:49:31.311Z,96551.16
2023-09-11T02:52:01.006Z,96547.16
2023-09-11T02:54:29.239Z,96546.13
2023-09-11T02:56:58.282Z,96538.09
2023-09-11T02:59:27.090Z,96535.16
2023-09-11T03:01:55.682Z,96538.63
2023-09-11T03:04:24.634Z,96535.44
2023-09-11T03:06:53.141Z,96535.69
2023-09-11T03:09:23.264Z,96532.19
2023-09-11T03:11:52.136Z,96532.50
2023-09-11T03:14:20.702Z,96527.94
2023-09-11T03:16:51.448Z,96534.88
2023-09-11T03:19:20.170Z,96528.47
2023-09-11T03:21:48.734Z,96525.25
2023-09-11T03:24:18.071Z,96529.28
2023-09-11T03:26:49.207Z,96531.69
2023-09-11T03:29:18.364Z,96531.41
2023-09-11T03:31:46.928Z,96529.81
2023-09-11T03:34:16.185Z,96524.19
2023-09-11T03:36:46.789Z,96529.00
2023-09-11T03:39:15.809Z,96527.94
2023-09-11T03:41:45.357Z,96529.28
2023-09-11T03:44:16.001Z,96534.88
2023-09-11T03:46:45.684Z,96528.19
2023-09-11T03:49:15.776Z,96538.63
2023-09-11T03:51:44.562Z,96541.31
2023-09-11T03:54:13.309Z,96539.16
2023-09-11T03:56:42.608Z,96537.03
2023-09-11T03:59:11.234Z,96536.50
2023-09-11T04:01:41.463Z,96523.72
2023-09-11T04:04:11.697Z,96522.63
2023-09-11T04:06:40.304Z,96529.03
2023-09-11T04:09:09.575Z,96523.66
2023-09-11T04:11:39.785Z,96520.75
2023-09-11T04:14:12.519Z,96519.94
2023-09-11T04:16:42.943Z,96517.53
2023-09-11T04:19:13.074Z,96527.97
2023-09-11T04:21:41.804Z,96526.63
2023-09-11T04:24:14.105Z,96528.50
2023-09-11T04:26:46.589Z,96528.25
2023-09-11T04:29:15.936Z,96528.25
2023-09-11T04:31:46.783Z,96527.44
2023-09-11T04:34:16.973Z,96519.69
2023-09-11T04:36:45.860Z,96521.84
2023-09-11T04:39:14.707Z,96517.56
2023-09-11T04:41:46.467Z,96517.84
2023-09-11T04:44:15.452Z,96522.13
2023-09-11T04:46:46.246Z,96514.63
2023-09-11T04:49:15.041Z,96522.38
2023-09-11T04:51:44.326Z,96527.69
2023-09-11T04:54:14.144Z,96526.38
2023-09-11T04:56:43.877Z,96525.03
2023-09-11T04:59:12.860Z,96533.31
2023-09-11T05:01:41.615Z,96524.50
2023-09-11T05:04:11.735Z,96533.03
2023-09-11T05:06:40.593Z,96526.91
2023-09-11T05:09:12.481Z,96529.03
2023-09-11T05:11:49.451Z,96523.97
2023-09-11T05:14:18.105Z,96529.03
2023-09-11T05:16:46.823Z,96525.84
2023-09-11T05:19:16.809Z,96533.06
2023-09-11T05:21:45.651Z,96527.19
2023-09-11T05:24:14.624Z,96528.25
2023-09-11T05:26:43.049Z,96537.06
2023-09-11T05:29:11.672Z,96539.72
2023-09-11T05:31:41.573Z,96531.72
2023-09-11T05:34:10.248Z,96536.25
2023-09-11T05:36:40.584Z,96545.06
2023-09-11T05:39:10.341Z,96548.28
2023-09-11T05:41:39.985Z,96549.88
2023-09-11T05:44:08.848Z,96549.06
2023-09-11T05:46:37.299Z,96547.50
2023-09-11T05:49:06.138Z,96552.53
2023-09-11T05:51:34.700Z,96535.19
2023-09-11T05:54:06.936Z,96538.13
2023-09-11T05:56:35.426Z,96539.19
2023-09-11T05:59:03.877Z,96546.41
2023-09-11T06:01:32.401Z,96552.56
2023-09-11T06:04:01.489Z,96549.31
2023-09-11T06:06:31.876Z,96544.25
2023-09-11T06:09:01.253Z,96550.41
2023-09-11T06:11:32.337Z,96550.38
2023-09-11T06:14:04.470Z,96544.50
2023-09-11T06:16:35.851Z,96553.59
2023-09-11T06:19:04.769Z,96551.69
2023-09-11T06:21:33.439Z,96563.72
2023-09-11T06:24:26.465Z,96560.25
2023-09-11T06:27:08.074Z,96570.91
2023-09-11T06:29:37.143Z,96568.50
2023-09-11T06:32:09.075Z,96562.63
2023-09-11T06:34:44.122Z,96569.31
2023-09-11T06:37:14.169Z,96565.03
2023-09-11T06:39:42.824Z,96559.91
2023-09-11T06:42:21.696Z,96554.50
2023-09-11T06:44:51.921Z,96553.88
2023-09-11T06:47:20.711Z,96557.06
2023-09-11T06:49:50.198Z,96553.53
2023-09-11T06:52:21.525Z,96553.25
2023-09-11T06:54:50.086Z,96547.63
2023-09-11T06:57:20.729Z,96551.41
2023-09-11T06:59:49.707Z,96549.81
2023-09-11T07:02:18.235Z,96549.75
2023-09-11T07:04:47.012Z,96546.81
2023-09-11T07:07:15.658Z,96548.13
2023-09-11T07:09:44.447Z,96558.00
2023-09-11T07:12:13.005Z,96564.97
2023-09-11T07:14:42.844Z,96559.34
2023-09-11T07:17:11.369Z,96553.88
2023-09-11T07:19:40.687Z,96554.06
2023-09-11T07:22:09.393Z,96546.53
2023-09-11T07:24:40.229Z,96550.47
2023-09-11T07:27:09.069Z,96548.25
2023-09-11T07:29:37.637Z,96553.22
2023-09-11T07:32:09.892Z,96554.41
2023-09-11T07:34:38.743Z,96558.31
2023-09-11T07:37:07.839Z,96551.97
2023-09-11T07:39:36.450Z,96548.88
2023-09-11T07:42:06.279Z,96552.53
2023-09-11T07:44:35.188Z,96556.44
2023-09-11T07:47:04.051Z,96548.28
2023-09-11T07:49:34.284Z,96548.16
2023-09-11T07:52:03.231Z,96549.41
2023-09-11T07:54:31.744Z,96542.00
2023-09-11T07:57:02.417Z,96547.22
2023-09-11T07:59:32.096Z,96559.25
2023-09-11T08:02:00.971Z,96551.13
2023-09-11T08:04:30.590Z,96549.59
2023-09-11T08:07:00.893Z,96552.28
2023-09-11T08:09:29.478Z,96551.09
2023-09-11T08:11:57.958Z,96551.75
2023-09-11T08:14:26.367Z,96552.31
2023-09-11T08:16:55.578Z,96556.22
2023-09-11T08:19:23.878Z,96556.13
2023-09-11T08:21:55.478Z,96554.88
2023-09-11T08:24:26.020Z,96559.72
2023-09-11T08:26:55.034Z,96552.38
2023-09-11T08:29:26.233Z,96554.38
2023-09-11T08:31:55.756Z,96564.75
2023-09-11T08:34:24.791Z,96560.09
2023-09-11T08:36:54.157Z,96551.22
2023-09-11T08:39:25.514Z,96553.03
2023-09-11T08:42:00.538Z,96560.59
2023-09-11T08:44:29.615Z,96555.31
2023-09-11T08:47:27.955Z,96550.81
2023-09-11T08:50:06.278Z,96550.94
2023-09-11T08:52:37.390Z,96550.75
2023-09-11T08:55:12.567Z,96554.31
2023-09-11T08:57:43.376Z,96547.41
2023-09-11T09:00:15.295Z,96554.63
2023-09-11T09:02:46.364Z,96547.34
2023-09-11T09:05:16.614Z,96545.25
2023-09-11T09:07:47.922Z,96538.53
2023-09-11T09:10:18.465Z,96542.88
2023-09-11T09:12:47.968Z,96543.66
2023-09-11T09:15:19.250Z,96543.66
2023-09-11T09:17:48.231Z,96546.28
2023-09-11T09:20:17.398Z,96551.16
2023-09-11T09:22:57.606Z,96547.53
2023-09-11T09:25:30.601Z,96543.13
2023-09-11T09:28:01.484Z,96542.69
2023-09-11T09:30:32.505Z,96544.19
2023-09-11T09:33:03.663Z,96538.59
2023-09-11T09:35:35.664Z,96544.22
2023-09-11T09:38:05.395Z,96538.19
2023-09-11T09:40:37.180Z,96540.31
2023-09-11T09:43:08.385Z,96541.47
2023-09-11T09:45:40.653Z,96538.56
2023-09-11T09:48:11.979Z,96538.13
2023-09-11T09:50:54.775Z,96538.47
2023-09-11T09:53:32.371Z,96534.59
2023-09-11T09:56:09.034Z,96531.31
2023-09-11T09:58:40.191Z,96521.13
2023-09-11T10:01:13.204Z,96523.25
2023-09-11T10:03:44.577Z,96521.84
2023-09-11T10:06:22.091Z,96520.56
2023-09-11T10:09:08.032Z,96515.84
2023-09-11T10:11:39.488Z,96512.72
2023-09-11T10:14:11.265Z,96506.03
2023-09-11T10:16:40.244Z,96506.16
2023-09-11T10:19:10.496Z,96511.94
2023-09-11T10:21:42.692Z,96500.41
2023-09-11T10:24:15.263Z,96494.53
2023-09-11T10:26:55.106Z,96497.53
2023-09-11T10:29:38.687Z,96497.69
2023-09-11T10:32:40.945Z,96496.16
2023-09-11T10:35:11.543Z,96493.47
2023-09-11T10:37:43.100Z,96493.13
2023-09-11T10:40:13.564Z,96486.59
2023-09-11T10:42:43.836Z,96485.84
2023-09-11T10:45:28.748Z,96483.31
2023-09-11T10:47:57.677Z,96487.16
2023-09-11T10:50:27.267Z,96492.06
2023-09-11T10:52:57.491Z,96484.63
2023-09-11T10:55:28.120Z,96477.63
2023-09-11T10:58:04.766Z,96479.06
2023-09-11T11:00:38.498Z,96473.97
2023-09-11T11:03:07.533Z,96472.22
2023-09-11T11:05:36.924Z,96471.88
2023-09-11T11:08:09.381Z,96472.53
2023-09-11T11:10:38.168Z,96462.81
2023-09-11T11:13:13.395Z,96466.78
2023-09-11T11:15:42.481Z,96465.53
2023-09-11T11:18:14.574Z,96461.38
2023-09-11T11:21:06.670Z,96470.47
2023-09-11T11:23:37.577Z,96463.44
2023-09-11T11:26:07.719Z,96457.72
2023-09-11T11:28:45.023Z,96456.63
2023-09-11T11:31:19.937Z,96453.91
2023-09-11T11:33:51.169Z,96455.00
2023-09-11T11:36:21.094Z,96455.19
2023-09-11T11:38:54.497Z,96450.88
2023-09-11T11:41:23.233Z,96453.72
2023-09-11T11:43:53.831Z,96451.66
2023-09-11T11:46:29.499Z,96442.13
2023-09-11T11:48:58.273Z,96455.47
2023-09-11T11:51:32.577Z,96447.66
2023-09-11T11:54:02.131Z,96453.75
2023-09-11T11:56:31.666Z,96454.69
2023-09-11T11:59:04.161Z,96452.59
2023-09-11T12:01:38.919Z,96448.59
2023-09-11T12:04:07.553Z,96449.06
2023-09-11T12:06:35.828Z,96444.94
2023-09-11T12:09:06.533Z,96440.97
2023-09-11T12:11:41.867Z,96447.53
2023-09-11T12:14:16.393Z,96440.00
2023-09-11T12:16:45.268Z,96439.69
2023-09-11T12:19:14.026Z,96432.78
2023-09-11T12:21:51.154Z,96443.94
2023-09-11T12:24:19.745Z,96436.00
2023-09-11T12:26:48.453Z,96429.53
2023-09-11T12:29:18.783Z,96440.47
2023-09-11T12:31:47.810Z,96432.03
2023-09-11T12:34:17.882Z,96430.28
2023-09-11T12:36:46.507Z,96434.00
2023-09-11T12:39:16.553Z,96429.53
2023-09-11T12:41:45.938Z,96418.53
2023-09-11T12:44:15.246Z,96410.44
2023-09-11T12:46:45.080Z,96401.34
2023-09-11T12:49:13.972Z,96411.66
2023-09-11T12:51:46.236Z,96408.31
2023-09-11T12:54:16.750Z,96403.22
2023-09-11T12:56:46.288Z,96410.72
2023-09-11T12:59:15.133Z,96402.47
2023-09-11T13:01:46.268Z,96397.03
2023-09-11T13:04:14.661Z,96390.81
2023-09-11T13:06:45.261Z,96392.19
2023-09-11T13:09:15.177Z,96393.84
2023-09-11T13:11:43.983Z,96391.34
2023-09-11T13:14:15.640Z,96391.16
2023-09-11T13:16:47.307Z,96393.66
2023-09-11T13:19:16.962Z,96395.09
2023-09-11T13:21:46.187Z,96392.59
2023-09-11T13:24:15.280Z,96390.19
2023-09-11T13:26:44.328Z,96379.69
2023-09-11T13:29:12.637Z,96382.69
2023-09-11T13:31:48.580Z,96371.84
2023-09-11T13:34:19.451Z,96373.88
2023-09-11T13:36:49.159Z,96382.16
2023-09-11T13:39:17.564Z,96377.41
2023-09-11T13:41:46.480Z,96380.44
2023-09-11T13:44:15.323Z,96378.56
2023-09-11T13:46:48.537Z,96379.69
2023-09-11T13:49:19.549Z,96382.53
2023-09-11T13:51:49.711Z,96379.34
2023-09-11T13:54:18.117Z,96380.31
2023-09-11T13:56:46.920Z,96373.00
2023-09-11T13:59:16.855Z,96373.13
2023-09-11T14:01:45.551Z,96368.66
2023-09-11T14:04:15.730Z,96377.41
2023-09-11T14:06:46.361Z,96371.38
2023-09-11T14:09:14.729Z,96365.34
2023-09-11T14:11:43.280Z,96360.88
2023-09-11T14:14:12.895Z,96362.97
2023-09-11T14:16:41.606Z,96364.44
2023-09-11T14:19:11.095Z,96363.47
2023-09-11T14:21:39.421Z,96355.56
2023-09-11T14:24:09.831Z,96352.63
2023-09-11T14:26:38.593Z,96352.63
2023-09-11T14:29:07.395Z,96344.38
2023-09-11T14:31:35.711Z,96355.38
2023-09-11T14:34:04.200Z,96345.69
2023-09-11T14:36:32.858Z,96347.09
2023-09-11T14:39:04.050Z,96342.94
2023-09-11T14:41:34.373Z,96340.56
2023-09-11T14:44:12.798Z,96337.53
2023-09-11T14:46:41.644Z,96345.97
2023-09-11T14:49:09.829Z,96338.03
2023-09-11T14:51:38.152Z,96339.44
2023-09-11T14:54:06.604Z,96335.47
2023-09-11T14:56:34.694Z,96337.22
2023-09-11T14:59:02.764Z,96342.47
2023-09-11T15:01:36.063Z,96331.97
2023-09-11T15:04:47.152Z,96327.03
2023-09-11T15:07:17.926Z,96326.22
2023-09-11T15:09:47.814Z,96331.63
2023-09-11T15:12:16.224Z,96328.31
2023-09-11T15:14:45.079Z,96329.00
2023-09-11T15:17:14.649Z,96326.28
2023-09-11T15:19:42.968Z,96326.91
2023-09-11T15:22:11.091Z,96327.09
2023-09-11T15:24:39.233Z,96321.19
2023-09-11T15:27:08.801Z,96322.44
2023-09-11T15:29:36.921Z,96315.63
2023-09-11T15:32:11.270Z,96322.78
2023-09-11T15:34:43.596Z,96328.50
2023-09-11T15:37:15.136Z,96324.53
2023-09-11T15:39:44.943Z,96323.56
2023-09-11T15:42:13.252Z,96330.25
2023-09-11T15:44:42.104Z,96323.13
2023-09-11T15:47:10.385Z,96322.00
2023-09-11T15:49:41.404Z,96317.41
2023-09-11T15:52:09.505Z,96325.53
2023-09-11T15:54:39.259Z,96323.44
2023-09-11T15:59:59.293Z,96316.16
2023-09-11T16:02:27.539Z,96325.09
2023-09-11T16:04:56.946Z,96321.75
2023-09-11T16:07:25.074Z,96319.53
2023-09-11T16:09:53.391Z,96318.88
2023-09-11T16:12:21.661Z,96322.84
2023-09-11T16:14:49.783Z,96322.84
2023-09-11T16:17:18.124Z,96324.78
2023-09-11T16:19:46.236Z,96319.69
2023-09-11T16:22:15.682Z,96315.41
2023-09-11T16:24:43.730Z,96318.91
2023-09-11T16:27:15.654Z,96318.44
2023-09-11T16:29:43.853Z,96320.50
2023-09-11T16:32:12.034Z,96316.84
2023-09-11T16:35:04.337Z,96326.22
2023-09-11T16:37:33.879Z,96314.97
2023-09-11T16:40:02.040Z,96324.03
2023-09-11T16:42:31.220Z,96325.28
2023-09-11T16:44:59.774Z,96321.50
2023-09-11T16:47:28.781Z,96333.84
2023-09-11T16:49:57.052Z,96323.84
2023-09-11T16:52:25.275Z,96328.94
2023-09-11T16:54:54.828Z,96321.63
2023-09-11T16:57:23.188Z,96317.19
2023-09-11T16:59:51.708Z,96313.84
2023-09-11T17:02:19.823Z,96312.44
2023-09-11T17:04:47.970Z,96312.25
2023-09-11T17:07:16.661Z,96316.72
2023-09-11T17:09:44.807Z,96313.56
2023-09-11T17:12:14.338Z,96317.34
2023-09-11T17:14:42.502Z,96306.69
2023-09-11T17:17:10.616Z,96305.13
2023-09-11T17:19:38.658Z,96304.97
2023-09-11T17:22:06.939Z,96300.03
2023-09-11T17:24:35.093Z,96308.28
2023-09-11T17:27:03.221Z,96310.84
2023-09-11T17:29:33.133Z,96309.84
2023-09-11T17:32:01.226Z,96313.19
2023-09-11T17:34:29.926Z,96313.03
2023-09-11T17:36:58.019Z,96310.47
2023-09-11T17:39:26.364Z,96308.72
2023-09-11T17:42:00.460Z,96301.88
2023-09-11T17:44:32.930Z,96309.03
2023-09-11T17:47:01.007Z,96308.06
2023-09-11T17:49:29.114Z,96303.28
2023-09-11T17:51:57.173Z,96312.66
2023-09-11T17:54:25.593Z,96307.72
2023-09-11T17:56:53.842Z,96308.19
2023-09-11T17:59:22.311Z,96305.13
2023-09-11T18:01:51.856Z,96309.22
2023-09-11T18:04:20.169Z,96309.34
2023-09-11T18:06:48.306Z,96310.63
2023-09-11T18:09:16.405Z,96313.13
2023-09-11T18:11:44.513Z,96315.66
2023-09-11T18:14:12.691Z,96327.50
2023-09-11T18:16:40.804Z,96325.44
2023-09-11T18:19:10.316Z,96322.72
2023-09-11T18:21:40.215Z,96327.16
2023-09-11T18:24:08.981Z,96331.56
2023-09-11T18:26:43.995Z,96327.13
2023-09-11T18:29:16.178Z,96329.94
2023-09-11T18:31:44.734Z,96331.50
2023-09-11T18:34:14.376Z,96335.88
2023-09-11T18:36:44.018Z,96345.38
2023-09-11T18:39:17.620Z,96345.50
2023-09-11T18:41:50.991Z,96354.00
2023-09-11T18:44:19.103Z,96360.94
2023-09-11T18:46:47.125Z,96365.78
2023-09-11T18:49:16.646Z,96365.38
2023-09-11T18:51:44.840Z,96371.19
2023-09-11T18:54:16.729Z,96371.13
2023-09-11T18:56:44.849Z,96372.34
2023-09-11T18:59:12.928Z,96369.72
2023-09-11T19:01:41.412Z,96365.69
2023-09-11T19:04:15.105Z,96371.47
2023-09-11T19:06:48.689Z,96369.97
2023-09-11T19:09:16.765Z,96362.50
2023-09-11T19:11:44.901Z,96371.28
2023-09-11T19:14:13.380Z,96357.84
2023-09-11T19:16:41.476Z,96360.06
2023-09-11T19:19:10.345Z,96365.19
2023-09-11T19:22:07.369Z,96357.56
2023-09-11T19:24:35.440Z,96352.19
2023-09-11T19:27:03.510Z,96353.78
2023-09-11T19:29:31.621Z,96354.09
2023-09-11T19:31:59.989Z,96354.09
2023-09-11T19:34:28.264Z,96350.09
2023-09-11T19:36:56.848Z,96355.78
2023-09-11T19:39:26.328Z,96348.50
2023-09-11T19:41:54.598Z,96344.19
2023-09-11T19:44:22.633Z,96347.19
2023-09-11T19:46:52.921Z,96346.69
2023-09-11T19:49:21.096Z,96341.59
2023-09-11T19:51:49.164Z,96342.00
2023-09-11T19:54:18.093Z,96348.75
2023-09-11T19:56:49.519Z,96349.75
2023-09-11T19:59:17.664Z,96345.28
2023-09-11T20:01:45.811Z,96343.16
2023-09-11T20:04:13.965Z,96338.00
2023-09-11T20:06:42.166Z,96341.69
2023-09-11T20:09:10.384Z,96338.06
2023-09-11T20:11:38.444Z,96341.41
2023-09-11T20:14:07.895Z,96338.09
2023-09-11T20:16:36.036Z,96338.81
2023-09-11T20:19:04.208Z,96334.16
2023-09-11T20:21:32.511Z,96331.97
2023-09-11T20:24:00.669Z,96335.19
2023-09-11T20:26:28.802Z,96339.53
2023-09-11T20:28:56.886Z,96333.16
2023-09-11T20:31:26.360Z,96332.94
2023-09-11T20:33:54.435Z,96335.50
2023-09-11T20:36:22.656Z,96336.88
2023-09-11T20:38:53.003Z,96340.69
2023-09-11T20:41:21.346Z,96340.97
2023-09-11T20:43:49.410Z,96351.47
2023-09-11T20:46:17.522Z,96347.78
2023-09-11T20:48:52.636Z,96345.38
2023-09-11T20:51:20.804Z,96358.41
2023-09-11T20:53:49.047Z,96348.09
2023-09-11T20:56:17.242Z,96351.59
2023-09-11T20:58:45.458Z,96342.59
2023-09-11T21:01:13.595Z,96340.50
2023-09-11T21:03:41.900Z,96345.94
2023-09-11T21:06:11.868Z,96348.09
2023-09-11T21:08:41.396Z,96349.94
2023-09-11T21:11:09.809Z,96345.56
2023-09-11T21:13:37.875Z,96339.47
2023-09-11T21:16:06.338Z,96336.78
2023-09-11T21:18:34.491Z,96347.53
2023-09-11T21:21:04.048Z,96346.81
2023-09-11T21:23:34.907Z,96345.50
2023-09-11T21:26:03.526Z,96344.50
2023-09-11T21:28:31.824Z,96353.94
2023-09-11T21:30:59.979Z,96354.78
2023-09-11T21:33:29.379Z,96347.09
2023-09-11T21:35:57.942Z,96348.03
2023-09-11T21:38:26.225Z,96339.03
2023-09-11T21:40:56.216Z,96348.47
2023-09-11T21:43:24.243Z,96341.47
2023-09-11T21:45:52.388Z,96345.25
2023-09-11T21:48:20.636Z,96346.94
2023-09-11T21:50:49.390Z,96344.31
2023-09-11T21:53:17.448Z,96346.75
2023-09-11T21:55:46.007Z,96348.38
2023-09-11T21:58:15.709Z,96353.94
2023-09-11T22:00:43.912Z,96342.50
2023-09-11T22:03:12.055Z,96344.16
2023-09-11T22:05:47.747Z,96339.53
2023-09-11T22:08:15.918Z,96338.78
2023-09-11T22:10:44.319Z,96339.25
2023-09-11T22:13:12.489Z,96340.81
2023-09-11T22:15:41.933Z,96331.41
2023-09-11T22:18:10.344Z,96332.00
2023-09-11T22:20:38.504Z,96329.91
2023-09-11T22:23:06.584Z,96326.19
2023-09-11T22:25:34.700Z,96329.44
2023-09-11T22:28:02.928Z,96324.38
2023-09-11T22:30:31.070Z,96329.53
2023-09-11T22:33:00.640Z,96319.28
2023-09-11T22:35:35.091Z,96319.88
2023-09-11T22:38:12.633Z,96322.84
2023-09-11T22:40:40.844Z,96327.97
2023-09-11T22:43:09.320Z,96327.41
2023-09-11T22:45:37.461Z,96320.47
2023-09-11T22:48:07.661Z,96327.41
2023-09-11T22:50:38.539Z,96326.38
2023-09-11T22:53:06.864Z,96314.34
2023-09-11T22:55:38.296Z,96325.84
2023-09-11T22:58:06.754Z,96319.72
2023-09-11T23:00:37.028Z,96321.31
2023-09-11T23:03:08.186Z,96325.66
2023-09-11T23:05:38.652Z,96328.69
2023-09-11T23:08:07.742Z,96326.31
2023-09-11T23:10:36.027Z,96324.78
2023-09-11T23:13:04.379Z,96319.66
2023-09-11T23:15:32.713Z,96313.78
2023-09-11T23:18:01.017Z,96319.41
2023-09-11T23:20:30.457Z,96320.72
2023-09-11T23:22:58.552Z,96306.75
2023-09-11T23:25:26.666Z,96310.25
2023-09-11T23:27:54.736Z,96307.84
2023-09-11T23:30:29.365Z,96307.84
2023-09-11T23:32:57.917Z,96313.50
2023-09-11T23:35:26.091Z,96313.41
2023-09-11T23:37:55.601Z,96308.88
2023-09-11T23:40:23.927Z,96309.22
2023-09-11T23:42:51.972Z,96307.91
2023-09-11T23:45:20.453Z,96303.94
2023-09-11T23:47:50.748Z,96296.16
2023-09-11T23:50:19.110Z,96299.91
2023-09-11T23:52:47.702Z,96293.50
2023-09-11T23:55:17.426Z,96296.38
2023-09-11T23:57:45.534Z,96291.38
